KTTD/TTD METAR and TAF weather

Enter ICAO airport designator
Station Type Date Time Source
KTTD METAR 2020/04/05 11:53 UTC NOAA

KTTD 051153Z AUTO 09011KT 10SM OVC060 08/01 A2956 RMK AO2 SLP011 60000 70002 T00780011 10083 20072 55003


Station Type Date Time Source
KTTD Decoded METAR 2020/04/05 11:53 UTC NOAA

PORTLAND-TROUTDALE AIRPORT, OR, United States (KTTD) 45-33N 122-25W 14M
Apr 05, 2020 - 07:53 AM EDT / 2020.04.05 1153 UTC
Wind: from the E (090 degrees) at 13 MPH (11 KT):0
Visibility: 10 mile(s):0
Sky conditions: overcast
Temperature: 46.0 F (7.8 C)
Dew Point: 34.0 F (1.1 C)
Relative Humidity: 62%
Pressure (altimeter): 29.56 in. Hg (1001 hPa)
Pressure tendency: 0.01 inches (0.3 hPa) lower than three hours ago
ob: KTTD 051153Z AUTO 09011KT 10SM OVC060 08/01 A2956 RMK AO2 SLP011 60000 70002 T00780011 10083 20072 55003
cycle: 12

Station Type Date Time Source
KTTD TAF 2020/04/05 12:33 UTC NOAA

TAF KTTD 051131Z 0512/0612 10011KT P6SM VCSH SCT020 OVC050
FM052000 32007KT P6SM SCT050 BKN090
FM061000 VRB03KT P6SM SCT020 BKN050

Example: see airport list